createdAt,value
2022-10-18T00:00:09.290Z,965.7
2022-10-18T00:01:11.287Z,965.6
2022-10-18T00:02:13.284Z,965.6
2022-10-18T00:03:15.042Z,965.6
2022-10-18T00:04:16.776Z,965.6
2022-10-18T00:05:18.589Z,965.6
2022-10-18T00:06:20.156Z,965.6
2022-10-18T00:07:21.860Z,965.6
2022-10-18T00:08:23.498Z,965.6
2022-10-18T00:09:25.091Z,965.6
2022-10-18T00:10:26.692Z,965.6
2022-10-18T00:11:28.360Z,965.5
2022-10-18T00:12:30.054Z,965.5
2022-10-18T00:13:31.834Z,965.5
2022-10-18T00:14:33.469Z,965.5
2022-10-18T00:15:35.328Z,965.5
2022-10-18T00:16:36.998Z,965.4
2022-10-18T00:17:38.565Z,965.5
2022-10-18T00:18:40.394Z,965.4
2022-10-18T00:19:42.143Z,965.4
2022-10-18T00:20:43.886Z,965.4
2022-10-18T00:21:45.579Z,965.4
2022-10-18T00:22:47.331Z,965.4
2022-10-18T00:23:49.105Z,965.4
2022-10-18T00:24:50.751Z,965.3
2022-10-18T00:25:52.467Z,965.3
2022-10-18T00:26:54.265Z,965.3
2022-10-18T00:27:55.962Z,965.3
2022-10-18T00:28:57.971Z,965.3
2022-10-18T00:29:59.794Z,965.3
2022-10-18T00:31:01.513Z,965.3
2022-10-18T00:32:03.257Z,965.3
2022-10-18T00:33:04.847Z,965.2
2022-10-18T00:34:06.464Z,965.2
2022-10-18T00:35:08.254Z,965.2
2022-10-18T00:36:10.097Z,965.2
2022-10-18T00:37:11.746Z,965.2
2022-10-18T00:38:13.394Z,965.2
2022-10-18T00:39:14.944Z,965.2
2022-10-18T00:40:16.526Z,965.2
2022-10-18T00:41:18.290Z,965.1
2022-10-18T00:42:19.953Z,965.2
2022-10-18T00:43:21.769Z,965.1
2022-10-18T00:44:23.616Z,965.2
2022-10-18T00:45:25.313Z,965.2
2022-10-18T00:46:27.002Z,965.2
2022-10-18T00:47:28.780Z,965.2
2022-10-18T00:48:30.561Z,965.2
2022-10-18T00:49:32.423Z,965.2
2022-10-18T00:50:34.259Z,965.2
2022-10-18T00:51:36.052Z,965.1
2022-10-18T00:52:37.687Z,965.1
2022-10-18T00:53:39.245Z,965.2
2022-10-18T00:54:41.255Z,965.1
2022-10-18T00:55:42.817Z,965.1
2022-10-18T00:56:44.441Z,965.1
2022-10-18T00:57:46.170Z,965.1
2022-10-18T00:58:47.898Z,965.1
2022-10-18T00:59:49.682Z,965.1
2022-10-18T01:00:51.288Z,965.1
2022-10-18T01:01:53.413Z,965.1
2022-10-18T01:02:55.334Z,965
2022-10-18T01:03:57.055Z,965.1
2022-10-18T01:04:58.741Z,965.1
2022-10-18T01:06:00.595Z,965
2022-10-18T01:07:02.337Z,965
2022-10-18T01:08:04.166Z,965.1
2022-10-18T01:09:06.002Z,965.1
2022-10-18T01:10:07.821Z,965.1
2022-10-18T01:11:09.511Z,965
2022-10-18T01:12:11.208Z,965
2022-10-18T01:13:12.753Z,965
2022-10-18T01:14:14.311Z,965
2022-10-18T01:15:16.185Z,965
2022-10-18T01:16:17.852Z,965
2022-10-18T01:17:19.676Z,965
2022-10-18T01:18:21.289Z,965
2022-10-18T01:19:23.381Z,965
2022-10-18T01:20:24.917Z,965
2022-10-18T01:21:26.692Z,965
2022-10-18T01:22:28.481Z,965
2022-10-18T01:23:30.262Z,965
2022-10-18T01:24:32.013Z,965
2022-10-18T01:25:33.786Z,965
2022-10-18T01:26:35.481Z,965
2022-10-18T01:27:37.353Z,964.9
2022-10-18T01:28:39.346Z,964.9
2022-10-18T01:29:41.059Z,965
2022-10-18T01:30:42.726Z,964.9
2022-10-18T01:31:44.372Z,965
2022-10-18T01:32:45.936Z,965
2022-10-18T01:33:47.489Z,964.9
2022-10-18T01:34:49.179Z,964.9
2022-10-18T01:35:50.893Z,964.9
2022-10-18T01:36:52.705Z,965
2022-10-18T01:37:54.443Z,965
2022-10-18T01:38:55.993Z,964.9
2022-10-18T01:39:57.583Z,964.9
2022-10-18T01:40:59.372Z,964.9
2022-10-18T01:42:01.283Z,964.9
2022-10-18T01:43:03.436Z,964.9
2022-10-18T01:44:05.286Z,964.9
2022-10-18T01:45:06.961Z,964.9
2022-10-18T01:46:08.737Z,964.9
2022-10-18T01:47:10.341Z,964.9
2022-10-18T01:48:12.073Z,964.9
2022-10-18T01:49:13.849Z,964.9
2022-10-18T01:50:15.580Z,964.9
2022-10-18T01:51:17.188Z,964.9
2022-10-18T01:52:18.930Z,964.9
2022-10-18T01:53:20.809Z,964.9
2022-10-18T01:54:22.513Z,964.9
2022-10-18T01:55:24.338Z,964.9
2022-10-18T01:56:25.885Z,964.9
2022-10-18T01:57:27.554Z,964.9
2022-10-18T01:58:29.271Z,964.9
2022-10-18T01:59:30.905Z,964.9
2022-10-18T02:00:32.687Z,964.9
2022-10-18T02:01:34.544Z,964.9
2022-10-18T02:02:36.331Z,964.9
2022-10-18T02:03:38.182Z,964.8
2022-10-18T02:04:39.744Z,964.8
2022-10-18T02:05:41.404Z,964.8
2022-10-18T02:06:43.004Z,964.8
2022-10-18T02:08:12.495Z,964.8
2022-10-18T02:09:25.154Z,964.8
2022-10-18T02:10:27.000Z,964.8
2022-10-18T02:11:28.722Z,964.8
2022-10-18T02:12:31.569Z,964.7
2022-10-18T02:13:34.009Z,964.7
2022-10-18T02:14:35.567Z,964.7
2022-10-18T02:15:37.277Z,964.7
2022-10-18T02:16:38.987Z,964.7
2022-10-18T02:17:40.748Z,964.7
2022-10-18T02:18:42.490Z,964.7
2022-10-18T02:19:44.334Z,964.7
2022-10-18T02:20:46.037Z,964.7
2022-10-18T02:21:47.689Z,964.8
2022-10-18T02:22:49.408Z,964.7
2022-10-18T02:23:51.183Z,964.7
2022-10-18T02:24:52.922Z,964.7
2022-10-18T02:25:54.603Z,964.7
2022-10-18T02:26:56.152Z,964.7
2022-10-18T02:27:57.746Z,964.6
2022-10-18T02:28:59.445Z,964.6
2022-10-18T02:30:01.006Z,964.6
2022-10-18T02:31:02.777Z,964.6
2022-10-18T02:32:04.417Z,964.7
2022-10-18T02:33:06.190Z,964.7
2022-10-18T02:34:07.839Z,964.6
2022-10-18T02:35:09.439Z,964.6
2022-10-18T02:36:11.125Z,964.7
2022-10-18T02:37:13.035Z,964.7
2022-10-18T02:38:14.825Z,964.7
2022-10-18T02:39:16.574Z,964.7
2022-10-18T02:40:18.317Z,964.7
2022-10-18T02:41:19.896Z,964.7
2022-10-18T02:42:21.489Z,964.7
2022-10-18T02:43:23.255Z,964.7
2022-10-18T02:44:24.875Z,964.8
2022-10-18T02:45:26.611Z,964.7
2022-10-18T02:46:28.480Z,964.8
2022-10-18T02:47:31.555Z,964.8
2022-10-18T02:48:33.775Z,964.8
2022-10-18T02:49:35.514Z,964.8
2022-10-18T02:50:37.089Z,964.7
2022-10-18T02:51:38.870Z,964.8
2022-10-18T02:52:43.070Z,964.8
2022-10-18T02:53:44.728Z,964.8
2022-10-18T02:54:46.576Z,964.8
2022-10-18T02:55:48.323Z,964.9
2022-10-18T02:56:49.932Z,964.8
2022-10-18T02:57:51.492Z,964.9
2022-10-18T02:58:53.234Z,964.8
2022-10-18T02:59:54.901Z,964.8
2022-10-18T03:00:56.489Z,964.8
2022-10-18T03:01:58.291Z,964.9
2022-10-18T03:02:59.942Z,964.8
2022-10-18T03:04:01.694Z,964.9
2022-10-18T03:05:03.388Z,964.8
2022-10-18T03:06:05.057Z,964.8
2022-10-18T03:07:06.871Z,964.8
2022-10-18T03:08:08.517Z,964.8
2022-10-18T03:09:10.426Z,964.8
2022-10-18T03:10:12.072Z,964.9
2022-10-18T03:11:13.895Z,964.8
2022-10-18T03:12:15.478Z,964.8
2022-10-18T03:13:17.423Z,964.8
2022-10-18T03:14:19.274Z,964.8
2022-10-18T03:15:21.096Z,964.8
2022-10-18T03:16:22.916Z,964.7
2022-10-18T03:17:24.720Z,964.8
2022-10-18T03:18:26.285Z,964.8
2022-10-18T03:19:28.155Z,964.8
2022-10-18T03:20:29.831Z,964.7
2022-10-18T03:21:31.408Z,964.7
2022-10-18T03:22:33.044Z,964.7
2022-10-18T03:23:34.873Z,964.8
2022-10-18T03:24:36.788Z,964.8
2022-10-18T03:25:46.358Z,964.7
2022-10-18T03:26:48.322Z,964.7
2022-10-18T03:27:50.052Z,964.7
2022-10-18T03:28:52.055Z,964.7
2022-10-18T03:29:53.973Z,964.7
2022-10-18T03:30:55.640Z,964.7
2022-10-18T03:31:57.375Z,964.7
2022-10-18T03:32:59.019Z,964.7
2022-10-18T03:34:00.712Z,964.7
2022-10-18T03:35:02.386Z,964.7
2022-10-18T03:36:04.360Z,964.7
2022-10-18T03:37:06.085Z,964.7
2022-10-18T03:38:07.750Z,964.8
2022-10-18T03:39:09.479Z,964.7
2022-10-18T03:40:11.062Z,964.7
2022-10-18T03:41:13.000Z,964.8
2022-10-18T03:42:14.848Z,964.8
2022-10-18T03:43:16.439Z,964.7
2022-10-18T03:44:18.103Z,964.8
2022-10-18T03:45:19.865Z,964.8
2022-10-18T03:46:21.531Z,964.8
2022-10-18T03:47:23.098Z,964.8
2022-10-18T03:48:24.801Z,964.8
2022-10-18T03:49:26.722Z,964.9
2022-10-18T03:50:28.623Z,964.8
2022-10-18T03:51:30.418Z,964.9
2022-10-18T03:52:33.208Z,964.9
2022-10-18T03:53:35.599Z,964.9
2022-10-18T03:54:37.298Z,964.9
2022-10-18T03:55:39.044Z,964.9
2022-10-18T03:56:40.853Z,964.9
2022-10-18T03:57:42.592Z,964.9
2022-10-18T03:58:44.289Z,964.9
2022-10-18T03:59:46.075Z,964.9
2022-10-18T04:00:47.824Z,964.9
2022-10-18T04:01:49.690Z,964.9
2022-10-18T04:02:56.537Z,964.9
2022-10-18T04:03:58.354Z,964.9
2022-10-18T04:04:59.930Z,964.9
2022-10-18T04:06:01.486Z,965
2022-10-18T04:07:03.079Z,965
2022-10-18T04:08:04.868Z,965
2022-10-18T04:09:10.707Z,964.9
2022-10-18T04:10:12.422Z,964.9
2022-10-18T04:11:14.102Z,964.9
2022-10-18T04:12:15.982Z,964.9
2022-10-18T04:13:17.801Z,964.9
2022-10-18T04:14:19.470Z,964.9
2022-10-18T04:15:23.886Z,964.9
2022-10-18T04:16:25.712Z,964.9
2022-10-18T04:17:27.623Z,964.8
2022-10-18T04:18:29.172Z,964.9
2022-10-18T04:19:30.851Z,964.9
2022-10-18T04:20:32.592Z,964.9
2022-10-18T04:21:34.341Z,964.8
2022-10-18T04:22:36.157Z,964.9
2022-10-18T04:23:39.374Z,964.9
2022-10-18T04:24:41.120Z,964.8
2022-10-18T04:26:45.405Z,964.8
2022-10-18T04:27:47.318Z,964.8
2022-10-18T04:28:49.247Z,964.8
2022-10-18T04:29:51.159Z,964.9
2022-10-18T04:30:52.965Z,964.9
2022-10-18T04:31:54.647Z,964.9
2022-10-18T04:32:56.267Z,964.9
2022-10-18T04:33:57.820Z,964.8
2022-10-18T04:34:59.491Z,964.8
2022-10-18T04:36:01.333Z,964.9
2022-10-18T04:37:03.053Z,964.8
2022-10-18T04:38:04.752Z,964.8
2022-10-18T04:39:06.305Z,964.8
2022-10-18T04:40:08.018Z,964.8
2022-10-18T04:41:09.721Z,964.8
2022-10-18T04:42:11.448Z,964.8
2022-10-18T04:43:13.215Z,964.8
2022-10-18T04:44:14.906Z,964.8
2022-10-18T04:45:16.750Z,964.8
2022-10-18T04:46:18.454Z,964.8
2022-10-18T04:47:20.068Z,964.8
2022-10-18T04:48:21.743Z,964.7
2022-10-18T04:49:23.292Z,964.8
2022-10-18T04:50:24.891Z,964.8
2022-10-18T04:51:26.604Z,964.8
2022-10-18T04:52:28.481Z,964.7
2022-10-18T04:53:30.240Z,964.7
2022-10-18T04:54:31.880Z,964.7
2022-10-18T04:55:33.535Z,964.7
2022-10-18T04:56:35.426Z,964.7
2022-10-18T04:57:37.146Z,964.7
2022-10-18T04:58:38.825Z,964.7
2022-10-18T04:59:40.644Z,964.7
2022-10-18T05:00:42.286Z,964.7
2022-10-18T05:01:44.527Z,964.6
2022-10-18T05:02:46.398Z,964.6
2022-10-18T05:03:48.044Z,964.6
2022-10-18T05:04:49.722Z,964.6
2022-10-18T05:06:03.756Z,964.6
2022-10-18T05:07:05.663Z,964.6
2022-10-18T05:08:07.306Z,964.6
2022-10-18T05:09:08.934Z,964.6
2022-10-18T05:10:10.630Z,964.6
2022-10-18T05:11:12.222Z,964.6
2022-10-18T05:12:13.814Z,964.6
2022-10-18T05:13:15.447Z,964.6
2022-10-18T05:14:19.878Z,964.6
2022-10-18T05:15:21.732Z,964.6
2022-10-18T05:16:23.539Z,964.6
2022-10-18T05:17:25.227Z,964.6
2022-10-18T05:18:26.834Z,964.6
2022-10-18T05:19:28.555Z,964.6
2022-10-18T05:20:30.267Z,964.6
2022-10-18T05:21:31.969Z,964.6
2022-10-18T05:22:34.853Z,964.6
2022-10-18T05:23:36.875Z,964.6
2022-10-18T05:24:38.439Z,964.6
2022-10-18T05:25:40.174Z,964.6
2022-10-18T05:26:41.786Z,964.7
2022-10-18T05:27:43.623Z,964.7
2022-10-18T05:28:45.734Z,964.6
2022-10-18T05:29:47.733Z,964.6
2022-10-18T05:30:49.443Z,964.6
2022-10-18T05:31:51.066Z,964.6
2022-10-18T05:32:53.019Z,964.6
2022-10-18T05:33:54.634Z,964.6
2022-10-18T05:34:56.341Z,964.6
2022-10-18T05:35:57.968Z,964.6
2022-10-18T05:36:59.532Z,964.7
2022-10-18T05:38:01.342Z,964.7
2022-10-18T05:39:05.488Z,964.7
2022-10-18T05:40:07.159Z,964.7
2022-10-18T05:41:08.882Z,964.7
2022-10-18T05:42:10.610Z,964.6
2022-10-18T05:43:12.290Z,964.7
2022-10-18T05:44:13.841Z,964.7
2022-10-18T05:45:15.596Z,964.7
2022-10-18T05:46:17.272Z,964.7
2022-10-18T05:47:18.915Z,964.7
2022-10-18T05:48:20.729Z,964.7
2022-10-18T05:49:22.334Z,964.7
2022-10-18T05:50:23.889Z,964.7
2022-10-18T05:51:25.664Z,964.7
2022-10-18T05:52:27.507Z,964.7
2022-10-18T05:53:38.556Z,964.7
2022-10-18T05:54:40.406Z,964.7
2022-10-18T05:55:41.992Z,964.8
2022-10-18T05:56:43.711Z,964.7
2022-10-18T05:57:45.571Z,964.8
2022-10-18T05:58:47.217Z,964.8
2022-10-18T05:59:48.859Z,964.8
2022-10-18T06:00:50.604Z,964.7
2022-10-18T06:01:52.430Z,964.7
2022-10-18T06:03:00.640Z,964.7
2022-10-18T06:04:02.609Z,964.7
2022-10-18T06:05:04.189Z,964.7
2022-10-18T06:06:05.872Z,964.7
2022-10-18T06:07:10.427Z,964.7
2022-10-18T06:08:12.036Z,964.7
2022-10-18T06:09:13.775Z,964.7
2022-10-18T06:10:15.352Z,964.7
2022-10-18T06:11:16.929Z,964.7
2022-10-18T06:12:18.486Z,964.7
2022-10-18T06:13:20.065Z,964.8
2022-10-18T06:14:21.716Z,964.8
2022-10-18T06:15:23.443Z,964.8
2022-10-18T06:16:33.065Z,964.8
2022-10-18T06:17:36.231Z,964.8
2022-10-18T06:18:38.547Z,964.8
2022-10-18T06:19:40.366Z,964.8
2022-10-18T06:20:42.043Z,964.8
2022-10-18T06:21:43.615Z,964.8
2022-10-18T06:22:45.165Z,964.8
2022-10-18T06:23:46.836Z,964.8
2022-10-18T06:24:48.389Z,964.8
2022-10-18T06:25:50.058Z,964.8
2022-10-18T06:26:51.704Z,964.8
2022-10-18T06:27:53.393Z,964.8
2022-10-18T06:28:55.237Z,964.8
2022-10-18T06:29:57.129Z,964.8
2022-10-18T06:30:59.025Z,964.7
2022-10-18T06:32:03.625Z,964.7
2022-10-18T06:33:05.326Z,964.7
2022-10-18T06:34:07.290Z,964.7
2022-10-18T06:35:09.114Z,964.7
2022-10-18T06:36:10.686Z,964.7
2022-10-18T06:37:12.535Z,964.7
2022-10-18T06:38:14.205Z,964.6
2022-10-18T06:39:15.813Z,964.7
2022-10-18T06:40:17.380Z,964.6
2022-10-18T06:41:19.084Z,964.6
2022-10-18T06:42:22.992Z,964.6
2022-10-18T06:43:24.537Z,964.7
2022-10-18T06:44:26.221Z,964.6
2022-10-18T06:45:27.791Z,964.6
2022-10-18T06:46:29.493Z,964.7
2022-10-18T06:47:31.265Z,964.6
2022-10-18T06:48:32.979Z,964.6
2022-10-18T06:49:34.940Z,964.6
2022-10-18T06:50:36.690Z,964.6
2022-10-18T06:51:38.538Z,964.6
2022-10-18T06:52:40.357Z,964.6
2022-10-18T06:54:17.806Z,964.5
2022-10-18T06:55:20.751Z,964.5
2022-10-18T06:56:22.380Z,964.6
2022-10-18T06:57:23.935Z,964.6
2022-10-18T06:58:25.811Z,964.6
2022-10-18T06:59:31.937Z,964.5
2022-10-18T07:00:33.611Z,964.6
2022-10-18T07:01:35.590Z,964.6
2022-10-18T07:02:37.513Z,964.6
2022-10-18T07:03:39.220Z,964.6
2022-10-18T07:04:40.945Z,964.6
2022-10-18T07:05:42.556Z,964.6
2022-10-18T07:06:44.238Z,964.5
2022-10-18T07:07:45.817Z,964.5
2022-10-18T07:08:47.664Z,964.5
2022-10-18T07:09:49.848Z,964.5
2022-10-18T07:10:51.535Z,964.6
2022-10-18T07:11:53.281Z,964.5
2022-10-18T07:13:33.316Z,964.6
2022-10-18T07:14:35.185Z,964.5
2022-10-18T07:15:37.032Z,964.6
2022-10-18T07:16:38.809Z,964.5
2022-10-18T07:17:40.586Z,964.5
2022-10-18T07:18:42.275Z,964.6
2022-10-18T07:19:44.054Z,964.5
2022-10-18T07:20:45.869Z,964.5
2022-10-18T07:21:47.578Z,964.5
2022-10-18T07:22:49.191Z,964.6
2022-10-18T07:23:50.826Z,964.5
2022-10-18T07:24:52.458Z,964.5
2022-10-18T07:25:54.204Z,964.5
2022-10-18T07:26:55.998Z,964.5
2022-10-18T07:27:57.562Z,964.5
2022-10-18T07:28:59.849Z,964.5
2022-10-18T07:30:01.758Z,964.5
2022-10-18T07:31:06.573Z,964.5
2022-10-18T07:32:08.217Z,964.5
2022-10-18T07:33:10.084Z,964.5
2022-10-18T07:34:11.899Z,964.5
2022-10-18T07:35:13.690Z,964.5
2022-10-18T07:36:15.495Z,964.5
2022-10-18T07:37:17.200Z,964.5
2022-10-18T07:38:19.024Z,964.5
2022-10-18T07:39:20.745Z,964.5
2022-10-18T07:40:22.468Z,964.5
2022-10-18T07:41:24.157Z,964.4
2022-10-18T07:42:25.866Z,964.4
2022-10-18T07:43:27.680Z,964.4
2022-10-18T07:44:29.576Z,964.4
2022-10-18T07:45:31.566Z,964.4
2022-10-18T07:46:33.414Z,964.3
2022-10-18T07:47:36.253Z,964.3
2022-10-18T07:48:38.643Z,964.3
2022-10-18T07:49:40.334Z,964.3
2022-10-18T07:50:42.117Z,964.3
2022-10-18T07:51:43.867Z,964.3
2022-10-18T07:52:45.578Z,964.2
2022-10-18T07:53:47.324Z,964.3
2022-10-18T07:55:51.619Z,964.2
2022-10-18T07:56:53.205Z,964.2
2022-10-18T07:57:54.899Z,964.2
2022-10-18T07:58:56.629Z,964.2
2022-10-18T07:59:58.201Z,964.2
2022-10-18T08:00:59.834Z,964.1
2022-10-18T08:02:01.894Z,964.1
2022-10-18T08:03:03.665Z,964.2
2022-10-18T08:04:16.178Z,964.2
2022-10-18T08:05:18.238Z,964.1
2022-10-18T08:06:19.846Z,964.2
2022-10-18T08:07:21.447Z,964.1
2022-10-18T08:08:23.077Z,964.2
2022-10-18T08:09:24.942Z,964.1
2022-10-18T08:10:26.515Z,964.1
2022-10-18T08:11:28.253Z,964.1
2022-10-18T08:12:29.800Z,964.1
2022-10-18T08:13:31.415Z,964.1
2022-10-18T08:14:33.128Z,964.1
2022-10-18T08:15:34.835Z,964.1
2022-10-18T08:16:36.524Z,964.1
2022-10-18T08:17:38.167Z,964
2022-10-18T08:18:39.731Z,964
2022-10-18T08:20:26.468Z,964
2022-10-18T08:21:33.040Z,964
2022-10-18T08:22:34.723Z,964
2022-10-18T08:23:36.496Z,963.9
2022-10-18T08:24:38.252Z,964
2022-10-18T08:25:39.999Z,963.9
2022-10-18T08:26:42.171Z,963.9
2022-10-18T08:27:43.897Z,963.9
2022-10-18T08:29:21.809Z,963.9
2022-10-18T08:30:28.519Z,963.9
2022-10-18T08:31:30.221Z,963.8
2022-10-18T08:32:32.676Z,963.8
2022-10-18T08:33:35.039Z,963.8
2022-10-18T08:35:41.630Z,963.8
2022-10-18T08:36:43.556Z,963.8
2022-10-18T08:37:45.224Z,963.8
2022-10-18T08:38:47.072Z,963.8
2022-10-18T08:39:48.901Z,963.8
2022-10-18T08:40:50.569Z,963.7
2022-10-18T08:41:52.130Z,963.7
2022-10-18T08:42:53.908Z,963.7
2022-10-18T08:43:55.486Z,963.6
2022-10-18T08:44:57.246Z,963.6
2022-10-18T08:45:58.869Z,963.6
2022-10-18T08:47:00.473Z,963.6
2022-10-18T08:48:02.130Z,963.6
2022-10-18T08:49:04.233Z,963.6
2022-10-18T08:50:05.865Z,963.6
2022-10-18T08:51:07.637Z,963.6
2022-10-18T08:52:09.394Z,963.5
2022-10-18T08:53:11.179Z,963.5
2022-10-18T08:54:12.890Z,963.5
2022-10-18T08:55:14.485Z,963.5
2022-10-18T08:56:16.320Z,963.4
2022-10-18T08:57:18.204Z,963.4
2022-10-18T08:58:19.948Z,963.4
2022-10-18T08:59:26.001Z,963.3
2022-10-18T09:00:27.712Z,963.4
2022-10-18T09:01:32.760Z,963.4
2022-10-18T09:02:36.064Z,963.3
2022-10-18T09:03:38.143Z,963.3
2022-10-18T09:04:40.435Z,963.3
2022-10-18T09:05:42.798Z,963.3
2022-10-18T09:06:44.503Z,963.4
2022-10-18T09:07:46.221Z,963.3
2022-10-18T09:08:47.894Z,963.2
2022-10-18T09:09:49.590Z,963.3
2022-10-18T09:10:51.507Z,963.2
2022-10-18T09:11:59.586Z,963.3
2022-10-18T09:13:03.881Z,963.2
2022-10-18T09:14:05.618Z,963.3
2022-10-18T09:15:07.454Z,963.3
2022-10-18T09:16:09.218Z,963.2
2022-10-18T09:17:16.619Z,963.2
2022-10-18T09:18:18.348Z,963.2
2022-10-18T09:19:20.071Z,963.2
2022-10-18T09:20:21.874Z,963.3
2022-10-18T09:21:23.471Z,963.2
2022-10-18T09:22:25.153Z,963.2
2022-10-18T09:23:26.877Z,963.2
2022-10-18T09:24:28.540Z,963.2
2022-10-18T09:25:30.192Z,963.2
2022-10-18T09:26:31.844Z,963.2
2022-10-18T09:27:33.525Z,963.2
2022-10-18T09:28:35.374Z,963.2
2022-10-18T09:29:37.229Z,963.2
2022-10-18T09:30:38.782Z,963.2
2022-10-18T09:31:40.486Z,963.1
2022-10-18T09:32:42.319Z,963.1
2022-10-18T09:33:43.996Z,963.1
2022-10-18T09:34:45.724Z,963.1
2022-10-18T09:35:47.284Z,963.1
2022-10-18T09:36:48.906Z,963.1
2022-10-18T09:37:50.546Z,963.1
2022-10-18T09:38:52.442Z,963
2022-10-18T09:39:54.049Z,963.1
2022-10-18T09:40:55.789Z,963
2022-10-18T09:41:57.337Z,963
2022-10-18T09:42:59.027Z,963
2022-10-18T09:44:00.773Z,963
2022-10-18T09:45:02.451Z,963
2022-10-18T09:46:04.228Z,963
2022-10-18T09:47:06.013Z,963
2022-10-18T09:48:08.106Z,963
2022-10-18T09:49:16.612Z,963
2022-10-18T09:50:18.329Z,963
2022-10-18T09:51:20.006Z,963
2022-10-18T09:52:21.717Z,962.9
2022-10-18T09:53:23.525Z,962.9
2022-10-18T09:54:25.167Z,962.9
2022-10-18T09:55:27.014Z,962.9
2022-10-18T09:56:28.708Z,962.9
2022-10-18T09:57:31.562Z,962.9
2022-10-18T09:58:33.848Z,962.9
2022-10-18T09:59:35.543Z,962.8
2022-10-18T10:00:37.270Z,962.8
2022-10-18T10:01:38.844Z,962.8
2022-10-18T10:02:40.689Z,962.8
2022-10-18T10:03:42.635Z,962.7
2022-10-18T10:04:44.188Z,962.8
2022-10-18T10:05:45.892Z,962.7
2022-10-18T10:06:47.723Z,962.7
2022-10-18T10:07:49.279Z,962.7
2022-10-18T10:08:51.068Z,962.6
2022-10-18T10:09:52.761Z,962.6
2022-10-18T10:10:54.538Z,962.6
2022-10-18T10:11:56.202Z,962.5
2022-10-18T10:12:57.938Z,962.6
2022-10-18T10:13:59.648Z,962.6
2022-10-18T10:15:01.431Z,962.6
2022-10-18T10:16:03.180Z,962.5
2022-10-18T10:17:04.843Z,962.5
2022-10-18T10:18:06.810Z,962.5
2022-10-18T10:19:08.897Z,962.5
2022-10-18T10:20:10.712Z,962.4
2022-10-18T10:21:12.271Z,962.4
2022-10-18T10:22:14.008Z,962.4
2022-10-18T10:23:16.051Z,962.3
2022-10-18T10:24:17.900Z,962.3
2022-10-18T10:25:19.598Z,962.3
2022-10-18T10:26:21.394Z,962.3
2022-10-18T10:27:23.035Z,962.3
2022-10-18T10:28:24.973Z,962.3
2022-10-18T10:29:45.311Z,962.2
2022-10-18T10:30:47.274Z,962.2
2022-10-18T10:31:49.017Z,962.2
2022-10-18T10:32:50.668Z,962.2
2022-10-18T10:33:52.546Z,962.1
2022-10-18T10:34:54.113Z,962.1
2022-10-18T10:35:55.734Z,962.1
2022-10-18T10:36:57.438Z,962.1
2022-10-18T10:37:59.126Z,962
2022-10-18T10:39:00.975Z,962
2022-10-18T10:40:27.743Z,962
2022-10-18T10:41:33.644Z,962
2022-10-18T10:42:35.610Z,962
2022-10-18T10:43:40.662Z,962
2022-10-18T10:44:42.344Z,961.9
2022-10-18T10:45:43.925Z,961.9
2022-10-18T10:46:45.893Z,961.9
2022-10-18T10:47:47.613Z,961.9
2022-10-18T10:48:49.376Z,961.9
2022-10-18T10:49:51.222Z,961.8
2022-10-18T10:50:55.740Z,961.8
2022-10-18T10:52:28.239Z,961.8
2022-10-18T10:53:38.516Z,961.8
2022-10-18T10:54:40.182Z,961.8
2022-10-18T10:55:41.872Z,961.8
2022-10-18T10:56:43.659Z,961.7
2022-10-18T10:57:45.278Z,961.7
2022-10-18T10:58:47.059Z,961.7
2022-10-18T10:59:48.834Z,961.7
2022-10-18T11:00:50.565Z,961.7
2022-10-18T11:01:52.140Z,961.7
2022-10-18T11:03:29.307Z,961.7
2022-10-18T11:04:31.892Z,961.6
2022-10-18T11:05:33.483Z,961.6
2022-10-18T11:06:35.236Z,961.6
2022-10-18T11:07:37.074Z,961.6
2022-10-18T11:08:39.151Z,961.6
2022-10-18T11:09:40.903Z,961.6
2022-10-18T11:10:42.545Z,961.6
2022-10-18T11:11:44.328Z,961.5
2022-10-18T11:12:46.072Z,961.5
2022-10-18T11:14:25.082Z,961.5
2022-10-18T11:15:28.840Z,961.5
2022-10-18T11:16:30.408Z,961.4
2022-10-18T11:17:32.158Z,961.4
2022-10-18T11:18:34.126Z,961.4
2022-10-18T11:19:35.937Z,961.3
2022-10-18T11:20:37.712Z,961.3
2022-10-18T11:21:39.488Z,961.3
2022-10-18T11:22:41.211Z,961.2
2022-10-18T11:23:42.921Z,961.3
2022-10-18T11:24:44.521Z,961.2
2022-10-18T11:25:46.113Z,961.2
2022-10-18T11:26:54.207Z,961.2
2022-10-18T11:27:56.161Z,961.1
2022-10-18T11:28:58.117Z,961.1
2022-10-18T11:29:59.810Z,961.1
2022-10-18T11:31:01.545Z,961.1
2022-10-18T11:32:03.177Z,961
2022-10-18T11:33:04.754Z,961
2022-10-18T11:34:10.879Z,961
2022-10-18T11:35:12.729Z,961
2022-10-18T11:36:14.560Z,961
2022-10-18T11:37:36.104Z,961
2022-10-18T11:38:40.286Z,960.9
2022-10-18T11:39:42.067Z,960.9
2022-10-18T11:40:43.628Z,960.9
2022-10-18T11:41:45.219Z,960.9
2022-10-18T11:42:47.004Z,960.8
2022-10-18T11:44:03.964Z,960.8
2022-10-18T11:45:05.855Z,960.8
2022-10-18T11:46:07.547Z,960.8
2022-10-18T11:47:09.140Z,960.7
2022-10-18T11:48:10.800Z,960.7
2022-10-18T11:49:12.377Z,960.7
2022-10-18T11:50:14.162Z,960.7
2022-10-18T11:51:15.930Z,960.7
2022-10-18T11:52:17.573Z,960.7
2022-10-18T11:53:19.137Z,960.7
2022-10-18T11:54:20.954Z,960.7
2022-10-18T11:55:22.688Z,960.7
2022-10-18T11:56:24.535Z,960.7
2022-10-18T11:57:26.320Z,960.7
2022-10-18T11:58:27.977Z,960.6
2022-10-18T11:59:29.787Z,960.6
2022-10-18T12:00:31.505Z,960.5
2022-10-18T12:01:33.424Z,960.5
2022-10-18T12:02:36.636Z,960.5
2022-10-18T12:03:38.749Z,960.4
2022-10-18T12:05:24.178Z,960.4
2022-10-18T12:06:26.739Z,960.5
2022-10-18T12:07:32.842Z,960.5
2022-10-18T12:08:34.562Z,960.5
2022-10-18T12:09:36.392Z,960.4
2022-10-18T12:11:06.538Z,960.4
2022-10-18T12:12:08.680Z,960.3
2022-10-18T12:13:10.393Z,960.3
2022-10-18T12:14:12.207Z,960.3
2022-10-18T12:15:13.946Z,960.2
2022-10-18T12:16:15.697Z,960.3
2022-10-18T12:17:51.664Z,960.3
2022-10-18T12:19:54.850Z,960.2
2022-10-18T12:20:56.728Z,960.3
2022-10-18T12:21:58.426Z,960.2
2022-10-18T12:23:00.125Z,960.2
2022-10-18T12:24:02.013Z,960.2
2022-10-18T12:25:03.677Z,960.2
2022-10-18T12:26:05.501Z,960.2
2022-10-18T12:27:07.146Z,960.2
2022-10-18T12:28:08.737Z,960.2
2022-10-18T12:29:10.444Z,960.1
2022-10-18T12:30:12.311Z,960.1
2022-10-18T12:31:14.203Z,960.1
2022-10-18T12:32:16.090Z,960.1
2022-10-18T12:33:29.355Z,960.1
2022-10-18T12:34:31.048Z,960.1
2022-10-18T12:35:32.605Z,960
2022-10-18T12:36:34.412Z,960
2022-10-18T12:37:36.906Z,960
2022-10-18T12:38:38.624Z,960
2022-10-18T12:40:21.790Z,960
2022-10-18T12:41:23.725Z,960
2022-10-18T12:42:25.416Z,960
2022-10-18T12:43:27.009Z,960
2022-10-18T12:44:28.655Z,960
2022-10-18T12:45:30.297Z,959.9
2022-10-18T12:46:34.995Z,959.9
2022-10-18T12:47:36.811Z,959.9
2022-10-18T12:48:38.417Z,959.9
2022-10-18T12:49:44.902Z,959.9
2022-10-18T12:50:46.488Z,959.9
2022-10-18T12:51:48.267Z,959.9
2022-10-18T12:52:49.932Z,959.9
2022-10-18T12:53:51.627Z,959.8
2022-10-18T12:54:53.185Z,959.8
2022-10-18T12:55:54.860Z,959.8
2022-10-18T12:56:56.565Z,959.8
2022-10-18T12:57:58.529Z,959.8
2022-10-18T12:59:00.369Z,959.8
2022-10-18T13:00:02.060Z,959.8
2022-10-18T13:01:04.233Z,959.8
2022-10-18T13:02:06.188Z,959.8
2022-10-18T13:03:07.930Z,959.8
2022-10-18T13:04:09.495Z,959.8
2022-10-18T13:05:53.237Z,959.8
2022-10-18T13:06:57.566Z,959.8
2022-10-18T13:07:59.640Z,959.7
2022-10-18T13:09:01.367Z,959.7
2022-10-18T13:10:03.239Z,959.7
2022-10-18T13:11:04.959Z,959.7
2022-10-18T13:12:06.638Z,959.7
2022-10-18T13:13:40.726Z,959.7
2022-10-18T13:15:24.575Z,959.6
2022-10-18T13:16:29.332Z,959.6
2022-10-18T13:17:31.901Z,959.7
2022-10-18T13:18:34.134Z,959.7
2022-10-18T13:19:35.684Z,959.7
2022-10-18T13:20:37.376Z,959.6
2022-10-18T13:21:38.967Z,959.6
2022-10-18T13:22:40.700Z,959.6
2022-10-18T13:23:42.445Z,959.6
2022-10-18T13:24:44.086Z,959.6
2022-10-18T13:25:45.756Z,959.6
2022-10-18T13:28:44.257Z,959.6
2022-10-18T13:29:46.088Z,959.6
2022-10-18T13:30:47.715Z,959.5
2022-10-18T13:31:49.806Z,959.6
2022-10-18T13:32:51.748Z,959.6
2022-10-18T13:33:53.435Z,959.6
2022-10-18T13:34:55.044Z,959.5
2022-10-18T13:35:56.737Z,959.5
2022-10-18T13:36:58.456Z,959.4
2022-10-18T13:38:00.175Z,959.5
2022-10-18T13:39:01.821Z,959.4